createdAt,value
2022-12-23T00:01:34.135Z,12.73
2022-12-23T00:04:01.158Z,15.70
2022-12-23T00:06:28.407Z,15.73
2022-12-23T00:08:58.631Z,16.15
2022-12-23T00:11:27.339Z,19.30
2022-12-23T00:14:19.956Z,16.23
2022-12-23T00:16:49.350Z,18.65
2022-12-23T00:19:16.347Z,19.33
2022-12-23T00:21:43.333Z,20.38
2022-12-23T00:24:12.158Z,16.63
2022-12-23T00:26:39.208Z,19.77
2022-12-23T00:29:06.177Z,19.27
2022-12-23T00:31:33.216Z,21.50
2022-12-23T00:34:00.203Z,18.95
2022-12-23T00:36:29.716Z,19.75
2022-12-23T00:39:21.364Z,22.08
2022-12-23T00:42:07.156Z,24.02
2022-12-23T00:44:34.167Z,23.52
2022-12-23T00:47:01.097Z,26.63
2022-12-23T00:49:43.112Z,26.95
2022-12-23T00:52:13.216Z,28.75
2022-12-23T00:54:40.733Z,23.17
2022-12-23T00:57:07.740Z,22.30
2022-12-23T00:59:34.769Z,24.05
2022-12-23T01:02:20.870Z,27.10
2022-12-23T01:05:06.510Z,28.50
2022-12-23T01:07:33.628Z,21.05
2022-12-23T01:10:00.531Z,21.20
2022-12-23T01:12:27.845Z,29.58
2022-12-23T01:14:54.831Z,23.27
2022-12-23T01:17:21.869Z,23.15
2022-12-23T01:19:48.943Z,30.27
2022-12-23T01:22:16.029Z,20.20
2022-12-23T01:24:42.941Z,26.98
2022-12-23T01:27:09.900Z,19.95
2022-12-23T01:29:36.858Z,21.20
2022-12-23T01:32:04.058Z,25.35
2022-12-23T01:34:36.449Z,23.98
2022-12-23T01:37:05.145Z,21.83
2022-12-23T01:39:32.117Z,23.77
2022-12-23T01:42:17.925Z,26.90
2022-12-23T01:44:50.669Z,25.33
2022-12-23T01:47:34.003Z,20.83
2022-12-23T01:50:15.290Z,23.13
2022-12-23T01:52:47.705Z,17.90
2022-12-23T01:55:19.051Z,24.33
2022-12-23T01:57:47.934Z,19.30
2022-12-23T02:00:34.572Z,19.38
2022-12-23T02:03:20.070Z,21.52
2022-12-23T02:05:48.104Z,16.63
2022-12-23T02:08:35.116Z,22.23
2022-12-23T02:11:36.957Z,21.85
2022-12-23T02:14:42.937Z,18.13
2022-12-23T02:17:25.093Z,18.58
2022-12-23T02:20:18.999Z,24.85
2022-12-23T02:22:45.935Z,24.60
2022-12-23T02:25:24.692Z,21.45
2022-12-23T02:28:15.746Z,19.23
2022-12-23T02:31:10.672Z,23.63
2022-12-23T02:34:11.199Z,16.77
2022-12-23T02:36:54.676Z,15.13
2022-12-23T02:39:53.832Z,19.48
2022-12-23T02:42:36.006Z,24.75
2022-12-23T02:45:22.429Z,19.15
2022-12-23T02:47:57.863Z,26.35
2022-12-23T02:50:29.929Z,22.67
2022-12-23T02:53:01.552Z,14.10
2022-12-23T02:55:33.400Z,17.38
2022-12-23T02:58:05.182Z,15.45
2022-12-23T03:00:33.504Z,21.48
2022-12-23T03:03:00.907Z,19.77
2022-12-23T03:05:39.153Z,17.75
2022-12-23T03:08:12.319Z,18.35
2022-12-23T03:11:01.858Z,14.87
2022-12-23T03:13:46.592Z,21.15
2022-12-23T03:16:31.357Z,12.02
2022-12-23T03:19:19.143Z,13.93
2022-12-23T03:21:54.973Z,22.73
2022-12-23T03:24:37.604Z,16.35
2022-12-23T03:27:08.918Z,13.48
2022-12-23T03:29:45.597Z,18.88
2022-12-23T03:32:14.874Z,13.98
2022-12-23T03:34:47.018Z,18.00
2022-12-23T03:37:16.488Z,15.55
2022-12-23T03:40:10.445Z,20.38
2022-12-23T03:42:40.636Z,19.00
2022-12-23T03:45:41.701Z,16.85
2022-12-23T03:48:35.772Z,12.13
2022-12-23T03:51:15.626Z,13.50
2022-12-23T03:53:51.710Z,10.05
2022-12-23T03:56:32.028Z,12.85
2022-12-23T03:59:03.415Z,12.10
2022-12-23T04:01:45.965Z,7.32
2022-12-23T04:04:26.170Z,12.10
2022-12-23T04:07:01.084Z,14.77
2022-12-23T04:09:29.232Z,11.60
2022-12-23T04:11:58.255Z,9.18
2022-12-23T04:14:25.254Z,9.68
2022-12-23T04:16:56.134Z,10.23
2022-12-23T04:19:23.272Z,9.68
2022-12-23T04:21:50.427Z,8.48
2022-12-23T04:24:17.453Z,7.78
2022-12-23T04:26:44.394Z,9.95
2022-12-23T04:29:11.445Z,6.20
2022-12-23T04:31:38.489Z,6.13
2022-12-23T04:34:05.594Z,7.75
2022-12-23T04:36:32.749Z,5.88
2022-12-23T04:38:59.780Z,4.93
2022-12-23T04:41:26.699Z,5.97
2022-12-23T04:43:53.719Z,6.45
2022-12-23T04:46:21.033Z,6.50
2022-12-23T04:48:48.104Z,6.72
2022-12-23T04:51:15.019Z,10.07
2022-12-23T04:53:42.070Z,7.82
2022-12-23T04:56:09.036Z,8.48
2022-12-23T04:58:36.084Z,8.15
2022-12-23T05:01:05.763Z,5.72
2022-12-23T05:03:33.389Z,6.95
2022-12-23T05:06:00.905Z,9.27
2022-12-23T05:08:28.609Z,6.53
2022-12-23T05:10:55.866Z,5.57
2022-12-23T05:13:23.260Z,7.78
2022-12-23T05:15:51.477Z,12.13
2022-12-23T05:18:18.627Z,6.88
2022-12-23T05:20:45.919Z,5.30
2022-12-23T05:23:13.029Z,8.60
2022-12-23T05:25:40.535Z,7.13
2022-12-23T05:28:10.850Z,7.15
2022-12-23T05:30:37.900Z,11.50
2022-12-23T05:33:04.959Z,9.00
2022-12-23T05:35:32.065Z,6.88
2022-12-23T05:37:59.022Z,6.55
2022-12-23T05:40:28.490Z,6.18
2022-12-23T05:42:58.023Z,2.95
2022-12-23T05:45:25.228Z,5.57
2022-12-23T05:47:52.226Z,8.90
2022-12-23T05:50:19.181Z,4.68
2022-12-23T05:52:48.935Z,8.25
2022-12-23T05:55:16.155Z,7.93
2022-12-23T05:57:43.133Z,5.43
2022-12-23T06:00:10.784Z,3.85
2022-12-23T06:02:40.878Z,6.53
2022-12-23T06:05:08.641Z,4.93
2022-12-23T06:07:35.667Z,3.13
2022-12-23T06:10:03.080Z,4.65
2022-12-23T06:12:30.048Z,5.63
2022-12-23T06:14:57.095Z,4.43
2022-12-23T06:17:24.162Z,6.28
2022-12-23T06:19:51.273Z,5.43
2022-12-23T06:22:18.445Z,6.60
2022-12-23T06:24:45.388Z,7.88
2022-12-23T06:27:12.497Z,9.52
2022-12-23T06:29:39.485Z,8.35
2022-12-23T06:32:06.540Z,6.10
2022-12-23T06:34:33.616Z,8.90
2022-12-23T06:37:00.842Z,7.97
2022-12-23T06:39:28.031Z,13.38
2022-12-23T06:41:55.035Z,11.20
2022-12-23T06:44:22.105Z,18.85
2022-12-23T06:46:49.137Z,12.95
2022-12-23T06:49:16.185Z,14.77
2022-12-23T06:51:43.233Z,15.93
2022-12-23T06:54:14.560Z,15.18
2022-12-23T06:56:41.648Z,17.77
2022-12-23T06:59:08.705Z,12.77
2022-12-23T07:01:35.848Z,17.08
2022-12-23T07:04:03.251Z,16.80
2022-12-23T07:06:30.321Z,18.85
2022-12-23T07:08:57.283Z,18.88
2022-12-23T07:11:24.286Z,18.17
2022-12-23T07:13:51.247Z,17.15
2022-12-23T07:16:18.344Z,15.05
2022-12-23T07:18:45.308Z,17.67
2022-12-23T07:21:20.017Z,17.63
2022-12-23T07:23:51.781Z,14.98
2022-12-23T07:26:18.774Z,16.55
2022-12-23T07:28:48.246Z,22.95
2022-12-23T07:31:15.612Z,20.23
2022-12-23T07:33:42.892Z,20.40
2022-12-23T07:36:10.041Z,22.23
2022-12-23T07:38:37.115Z,25.13
2022-12-23T07:41:04.287Z,23.90
2022-12-23T07:43:31.353Z,20.25
2022-12-23T07:46:00.576Z,27.45
2022-12-23T07:48:28.333Z,26.25
2022-12-23T07:51:01.785Z,26.60
2022-12-23T07:53:29.191Z,23.65
2022-12-23T07:55:57.070Z,22.73
2022-12-23T07:58:24.712Z,25.10
2022-12-23T08:00:58.751Z,27.23
2022-12-23T08:03:25.889Z,23.38
2022-12-23T08:06:00.664Z,26.05
2022-12-23T08:08:27.677Z,24.95
2022-12-23T08:10:59.757Z,31.67
2022-12-23T08:13:26.944Z,27.92
2022-12-23T08:15:58.257Z,31.92
2022-12-23T08:18:25.960Z,36.55
2022-12-23T08:21:06.558Z,31.17
2022-12-23T08:23:34.192Z,39.70
2022-12-23T08:26:05.716Z,34.17
2022-12-23T08:28:34.149Z,26.25
2022-12-23T08:31:10.416Z,29.17
2022-12-23T08:33:39.118Z,24.48
2022-12-23T08:36:07.833Z,26.88
2022-12-23T08:38:35.650Z,20.48
2022-12-23T08:41:02.744Z,20.88
2022-12-23T08:43:35.507Z,23.30
2022-12-23T08:46:03.527Z,23.48
2022-12-23T08:48:31.169Z,23.65
2022-12-23T08:51:02.220Z,22.13
2022-12-23T08:53:29.298Z,25.40
2022-12-23T08:55:56.281Z,20.70
2022-12-23T08:58:23.284Z,21.67
2022-12-23T09:00:51.148Z,19.77
2022-12-23T09:03:18.237Z,18.60
2022-12-23T09:05:45.290Z,15.07
2022-12-23T09:08:12.271Z,13.75
2022-12-23T09:10:45.241Z,14.70
2022-12-23T09:13:16.661Z,10.73
2022-12-23T09:15:49.686Z,16.65
2022-12-23T09:18:16.661Z,13.98
2022-12-23T09:20:43.854Z,14.13
2022-12-23T09:23:11.308Z,14.05
2022-12-23T09:25:38.309Z,17.92
2022-12-23T09:28:06.880Z,10.07
2022-12-23T09:30:33.951Z,10.63
2022-12-23T09:33:00.896Z,13.65
2022-12-23T09:35:27.901Z,10.20
2022-12-23T09:37:54.894Z,9.75
2022-12-23T09:40:22.515Z,7.65
2022-12-23T09:43:26.728Z,6.70
2022-12-23T09:46:06.298Z,8.50
2022-12-23T09:48:40.819Z,7.68
2022-12-23T09:51:10.681Z,8.73
2022-12-23T09:54:16.926Z,7.97
2022-12-23T09:56:51.903Z,7.15
2022-12-23T09:59:39.194Z,8.18
2022-12-23T10:02:30.327Z,9.13
2022-12-23T10:05:27.740Z,8.63
2022-12-23T10:08:04.416Z,10.80
2022-12-23T10:10:37.604Z,8.60
2022-12-23T10:13:07.112Z,10.65
2022-12-23T10:15:48.067Z,9.70
2022-12-23T10:18:39.100Z,8.93
2022-12-23T10:21:26.335Z,7.80
2022-12-23T10:23:54.949Z,10.98
2022-12-23T10:26:55.198Z,7.68
2022-12-23T10:29:31.418Z,8.75
2022-12-23T10:32:19.247Z,6.68
2022-12-23T10:35:03.644Z,9.10
2022-12-23T10:37:45.561Z,9.07
2022-12-23T10:40:39.854Z,7.32
2022-12-23T10:43:30.612Z,9.73
2022-12-23T10:45:57.656Z,8.10
2022-12-23T10:48:27.111Z,9.93
2022-12-23T10:51:12.208Z,7.95
2022-12-23T10:54:02.414Z,7.13
2022-12-23T10:56:30.759Z,8.80
2022-12-23T10:59:00.727Z,6.57
2022-12-23T11:01:30.704Z,5.18
2022-12-23T11:04:02.520Z,6.90
2022-12-23T11:06:36.808Z,5.20
2022-12-23T11:09:06.148Z,5.30
2022-12-23T11:11:56.508Z,5.72
2022-12-23T11:14:50.556Z,4.90
2022-12-23T11:17:32.085Z,4.97
2022-12-23T11:20:13.021Z,7.13
2022-12-23T11:22:52.157Z,6.85
2022-12-23T11:25:26.881Z,4.63
2022-12-23T11:27:59.791Z,4.50
2022-12-23T11:30:28.123Z,8.13
2022-12-23T11:32:55.662Z,4.97
2022-12-23T11:35:29.246Z,5.53
2022-12-23T11:37:58.626Z,5.13
2022-12-23T11:40:34.243Z,5.20
2022-12-23T11:43:11.790Z,6.15
2022-12-23T11:45:38.977Z,3.50
2022-12-23T11:48:07.267Z,5.05
2022-12-23T11:50:41.773Z,4.28
2022-12-23T11:53:22.488Z,4.10
2022-12-23T11:56:06.857Z,4.65
2022-12-23T11:58:46.051Z,3.78
2022-12-23T12:01:20.409Z,4.18
2022-12-23T12:03:55.602Z,2.75
2022-12-23T12:06:23.413Z,3.38
2022-12-23T12:08:53.809Z,3.78
2022-12-23T12:11:46.237Z,7.20
2022-12-23T12:14:46.907Z,2.83
2022-12-23T12:17:26.609Z,4.63
2022-12-23T12:20:02.213Z,3.15
2022-12-23T12:22:40.196Z,4.22
2022-12-23T12:25:21.459Z,3.42
2022-12-23T12:27:57.952Z,4.50
2022-12-23T12:30:31.608Z,2.45
2022-12-23T12:33:11.859Z,4.57
2022-12-23T12:36:05.451Z,7.15
2022-12-23T12:38:36.207Z,4.07
2022-12-23T12:41:29.452Z,8.05
2022-12-23T12:43:56.409Z,9.13
2022-12-23T12:46:41.196Z,8.98
2022-12-23T12:49:31.585Z,10.13
2022-12-23T12:52:17.018Z,13.10
2022-12-23T12:54:57.800Z,14.13
2022-12-23T12:57:25.370Z,16.30
2022-12-23T13:00:03.587Z,17.05
2022-12-23T13:02:59.519Z,19.42
2022-12-23T13:05:38.812Z,25.57
2022-12-23T13:08:17.743Z,19.42
2022-12-23T13:10:53.442Z,28.05
2022-12-23T13:13:31.959Z,27.30
2022-12-23T13:16:26.337Z,25.80
2022-12-23T13:19:26.380Z,28.85
2022-12-23T13:22:23.887Z,23.63
2022-12-23T13:25:08.850Z,26.70
2022-12-23T13:27:46.403Z,19.70
2022-12-23T13:30:18.991Z,33.58
2022-12-23T13:33:09.031Z,25.30
2022-12-23T13:35:41.722Z,28.20
2022-12-23T13:38:41.709Z,29.27
2022-12-23T13:41:34.487Z,26.65
2022-12-23T13:44:02.918Z,35.25
2022-12-23T13:46:52.653Z,30.90
2022-12-23T13:49:46.205Z,35.67
2022-12-23T13:52:34.189Z,32.03
2022-12-23T13:55:11.562Z,32.50
2022-12-23T13:58:00.281Z,42.38
2022-12-23T14:00:32.835Z,40.40
2022-12-23T14:03:03.035Z,38.15
2022-12-23T14:05:39.074Z,42.53
2022-12-23T14:08:41.264Z,35.25
2022-12-23T14:11:15.277Z,36.63
2022-12-23T14:13:51.147Z,35.90
2022-12-23T14:16:21.355Z,34.05
2022-12-23T14:19:20.903Z,35.78
2022-12-23T14:21:53.830Z,30.00
2022-12-23T14:24:45.763Z,36.25
2022-12-23T14:27:55.830Z,38.30
2022-12-23T14:30:37.366Z,38.55
2022-12-23T14:33:27.687Z,35.08
2022-12-23T14:36:21.182Z,39.38
2022-12-23T14:39:12.997Z,33.67
2022-12-23T14:41:51.997Z,33.80
2022-12-23T14:44:21.889Z,39.42
2022-12-23T14:46:48.876Z,34.25
2022-12-23T14:49:39.544Z,38.42
2022-12-23T14:52:45.206Z,42.83
2022-12-23T14:55:32.866Z,36.30
2022-12-23T14:58:26.266Z,38.33
2022-12-23T15:01:02.245Z,36.28
2022-12-23T15:03:35.104Z,37.80
2022-12-23T15:06:07.339Z,32.22
2022-12-23T15:08:39.609Z,39.95
2022-12-23T15:11:13.894Z,34.90
2022-12-23T15:13:42.878Z,45.95
2022-12-23T15:16:18.523Z,33.88
2022-12-23T15:19:02.300Z,33.95
2022-12-23T15:21:32.635Z,34.08
2022-12-23T15:24:00.589Z,48.58
2022-12-23T15:26:31.363Z,34.33
2022-12-23T15:29:00.367Z,44.10
2022-12-23T15:31:35.144Z,41.00
2022-12-23T15:34:16.889Z,44.92
2022-12-23T15:36:45.803Z,38.33
2022-12-23T15:39:21.022Z,46.97
2022-12-23T15:41:48.982Z,43.35
2022-12-23T15:44:24.147Z,41.05
2022-12-23T15:46:51.759Z,47.92
2022-12-23T15:49:21.758Z,40.25
2022-12-23T15:52:12.364Z,35.20
2022-12-23T15:54:45.864Z,35.60
2022-12-23T15:57:19.231Z,35.60
2022-12-23T15:59:46.503Z,39.75
2022-12-23T16:05:35.197Z,31.45
2022-12-23T16:08:16.060Z,33.75
2022-12-23T16:10:55.768Z,33.03
2022-12-23T16:13:23.056Z,33.33
2022-12-23T16:15:50.085Z,31.52
2022-12-23T16:18:22.294Z,37.15
2022-12-23T16:21:04.265Z,33.10
2022-12-23T16:23:35.203Z,31.77
2022-12-23T16:26:03.875Z,36.90
2022-12-23T16:28:41.692Z,35.97
2022-12-23T16:31:10.630Z,36.97
2022-12-23T16:33:42.702Z,41.63
2022-12-23T16:36:26.374Z,34.63
2022-12-23T16:39:09.311Z,40.47
2022-12-23T16:41:36.580Z,44.22
2022-12-23T16:44:04.433Z,42.40
2022-12-23T16:46:38.664Z,39.25
2022-12-23T16:49:10.956Z,38.25
2022-12-23T16:51:39.729Z,37.90
2022-12-23T16:54:06.687Z,42.33
2022-12-23T16:56:36.410Z,40.08
2022-12-23T16:59:04.241Z,31.08
2022-12-23T17:01:34.932Z,39.83
2022-12-23T17:04:02.444Z,41.30
2022-12-23T17:06:30.264Z,47.88
2022-12-23T17:08:57.399Z,40.00
2022-12-23T17:11:49.170Z,38.25
2022-12-23T17:14:18.801Z,35.80
2022-12-23T17:16:46.647Z,39.17
2022-12-23T17:19:13.900Z,39.10
2022-12-23T17:21:43.234Z,35.22
2022-12-23T17:24:20.797Z,43.90
2022-12-23T17:26:47.931Z,40.28
2022-12-23T17:29:14.929Z,35.17
2022-12-23T17:31:43.268Z,43.28
2022-12-23T17:34:22.219Z,38.67
2022-12-23T17:36:50.416Z,32.45
2022-12-23T17:39:19.304Z,37.83
2022-12-23T17:41:46.783Z,36.80
2022-12-23T17:44:15.615Z,36.83
2022-12-23T17:46:43.009Z,43.85
2022-12-23T17:49:09.972Z,34.60
2022-12-23T17:51:39.723Z,39.00
2022-12-23T17:54:06.780Z,32.50
2022-12-23T17:56:34.075Z,35.22
2022-12-23T17:59:01.100Z,39.25
2022-12-23T18:01:31.628Z,41.65
2022-12-23T18:03:59.977Z,38.08
2022-12-23T18:06:28.864Z,34.63
2022-12-23T18:08:59.691Z,41.13
2022-12-23T18:11:46.698Z,36.22
2022-12-23T18:14:19.388Z,43.88
2022-12-23T18:16:46.614Z,38.35
2022-12-23T18:19:27.448Z,37.75
2022-12-23T18:21:56.697Z,43.03
2022-12-23T18:24:23.990Z,41.15
2022-12-23T18:26:51.085Z,39.53
2022-12-23T18:29:18.641Z,42.72
2022-12-23T18:31:51.513Z,42.88
2022-12-23T18:34:19.985Z,36.83
2022-12-23T18:36:48.430Z,42.28
2022-12-23T18:39:15.729Z,37.50
2022-12-23T18:41:42.639Z,41.40
2022-12-23T18:44:18.852Z,46.40
2022-12-23T18:46:46.075Z,36.72
2022-12-23T18:49:13.119Z,42.25
2022-12-23T18:51:40.150Z,39.20
2022-12-23T18:54:07.091Z,42.30
2022-12-23T18:56:34.082Z,38.38
2022-12-23T18:59:01.057Z,46.78
2022-12-23T19:01:28.107Z,47.38
2022-12-23T19:03:55.060Z,37.50
2022-12-23T19:06:22.108Z,42.00
2022-12-23T19:08:49.119Z,42.42
2022-12-23T19:11:18.854Z,37.55
2022-12-23T19:13:46.648Z,47.97
2022-12-23T19:16:18.593Z,48.33
2022-12-23T19:18:46.950Z,37.60
2022-12-23T19:21:14.754Z,39.40
2022-12-23T19:23:42.517Z,42.75
2022-12-23T19:26:15.969Z,38.95
2022-12-23T19:28:44.298Z,37.33
2022-12-23T19:31:13.655Z,37.45
2022-12-23T19:33:42.329Z,37.75
2022-12-23T19:36:14.878Z,40.63
2022-12-23T19:38:42.252Z,34.80
2022-12-23T19:41:10.095Z,43.47
2022-12-23T19:43:38.523Z,28.67
2022-12-23T19:46:08.451Z,41.85
2022-12-23T19:48:36.488Z,42.67
2022-12-23T19:51:06.348Z,36.25
2022-12-23T19:53:33.956Z,37.95
2022-12-23T19:56:07.529Z,31.33
2022-12-23T19:58:37.440Z,38.25
2022-12-23T20:01:13.667Z,37.33
2022-12-23T20:03:42.349Z,38.45
2022-12-23T20:06:19.586Z,44.78
2022-12-23T20:08:49.078Z,43.05
2022-12-23T20:11:18.819Z,40.88
2022-12-23T20:13:46.446Z,36.17
2022-12-23T20:16:13.797Z,39.25
2022-12-23T20:18:40.840Z,47.95
2022-12-23T20:21:07.865Z,43.63
2022-12-23T20:23:35.499Z,40.30
2022-12-23T20:26:03.128Z,38.33
2022-12-23T20:28:30.492Z,50.38
2022-12-23T20:31:19.104Z,38.58
2022-12-23T20:33:47.284Z,38.22
2022-12-23T20:36:16.752Z,44.30
2022-12-23T20:38:45.583Z,32.47
2022-12-23T20:41:18.122Z,36.55
2022-12-23T20:43:56.958Z,38.67
2022-12-23T20:46:30.317Z,33.00
2022-12-23T20:48:57.357Z,35.33
2022-12-23T20:51:25.385Z,46.05
2022-12-23T20:53:54.634Z,44.65
2022-12-23T20:56:27.364Z,43.95
2022-12-23T20:58:55.219Z,39.25
2022-12-23T21:01:28.621Z,36.95
2022-12-23T21:03:57.537Z,44.17
2022-12-23T21:06:25.807Z,39.42
2022-12-23T21:08:55.847Z,39.10
2022-12-23T21:11:23.938Z,39.63
2022-12-23T21:13:51.838Z,42.85
2022-12-23T21:16:19.289Z,42.92
2022-12-23T21:18:53.195Z,37.45
2022-12-23T21:23:50.751Z,43.42
2022-12-23T21:26:20.507Z,47.13
2022-12-23T21:28:48.902Z,38.20
2022-12-23T21:31:18.939Z,35.70
2022-12-23T21:33:47.896Z,46.28
2022-12-23T21:36:20.196Z,38.15
2022-12-23T21:38:49.374Z,38.28
2022-12-23T21:41:19.840Z,44.53
2022-12-23T21:43:47.577Z,50.45
2022-12-23T21:46:17.736Z,43.22
2022-12-23T21:48:45.398Z,39.80
2022-12-23T21:51:16.362Z,44.83
2022-12-23T21:53:45.086Z,46.03
2022-12-23T21:56:14.920Z,46.05
2022-12-23T21:58:42.733Z,41.38
2022-12-23T22:01:12.591Z,38.05
2022-12-23T22:03:39.994Z,45.08
2022-12-23T22:06:21.848Z,42.38
2022-12-23T22:08:50.690Z,44.38
2022-12-23T22:11:24.936Z,43.95
2022-12-23T22:13:52.486Z,42.00
2022-12-23T22:16:22.041Z,44.45
2022-12-23T22:18:50.055Z,37.72
2022-12-23T22:21:22.798Z,41.55
2022-12-23T22:23:51.149Z,51.78
2022-12-23T22:26:25.289Z,46.55
2022-12-23T22:28:58.049Z,41.72
2022-12-23T22:31:53.359Z,43.67
2022-12-23T22:34:22.600Z,46.88
2022-12-23T22:36:50.653Z,40.05
2022-12-23T22:39:21.401Z,44.38
2022-12-23T22:41:50.948Z,44.13
2022-12-23T22:44:18.142Z,43.95
2022-12-23T22:46:45.437Z,44.45
2022-12-23T22:49:14.567Z,37.35
2022-12-23T22:51:42.420Z,47.75
2022-12-23T22:54:10.275Z,45.60
2022-12-23T22:56:37.540Z,40.25
2022-12-23T22:59:04.960Z,41.78
2022-12-23T23:01:36.042Z,45.55
2022-12-23T23:04:04.156Z,38.80
2022-12-23T23:06:34.293Z,38.72
2022-12-23T23:09:01.455Z,41.38
2022-12-23T23:11:28.857Z,34.85
2022-12-23T23:13:56.475Z,48.95
2022-12-23T23:16:24.669Z,40.03
2022-12-23T23:18:52.584Z,32.03
2022-12-23T23:21:20.260Z,35.30
2022-12-23T23:23:47.641Z,34.40
2022-12-23T23:26:14.869Z,40.60
2022-12-23T23:28:42.826Z,35.45
2022-12-23T23:31:40.482Z,49.63
2022-12-23T23:33:58.002Z,41.38
2022-12-23T23:36:25.426Z,40.20
2022-12-23T23:38:52.461Z,36.08
2022-12-23T23:41:23.426Z,42.20
2022-12-23T23:43:51.592Z,31.95
2022-12-23T23:46:19.260Z,31.85
2022-12-23T23:48:47.470Z,39.58
2022-12-23T23:51:14.425Z,43.33
2022-12-23T23:53:41.432Z,38.28
2022-12-23T23:56:09.169Z,41.00
2022-12-23T23:58:37.231Z,33.25
